sensor_id;sensor_type;location;lat;lon;timestamp;P1;durP1;ratioP1;P2;durP2;ratioP2
52470;SDS011;38382;53.160;7.026;2022-12-11T00:02:00;49.50;;;16.35;;
52470;SDS011;38382;53.160;7.026;2022-12-11T00:04:25;54.63;;;16.45;;
52470;SDS011;38382;53.160;7.026;2022-12-11T00:06:51;46.72;;;15.90;;
52470;SDS011;38382;53.160;7.026;2022-12-11T00:09:18;46.70;;;16.42;;
52470;SDS011;38382;53.160;7.026;2022-12-11T00:11:45;54.25;;;17.70;;
52470;SDS011;38382;53.160;7.026;2022-12-11T00:14:11;54.00;;;15.98;;
52470;SDS011;38382;53.160;7.026;2022-12-11T00:16:38;54.90;;;16.20;;
52470;SDS011;38382;53.160;7.026;2022-12-11T00:19:04;67.95;;;16.77;;
52470;SDS011;38382;53.160;7.026;2022-12-11T00:21:30;47.90;;;15.30;;
52470;SDS011;38382;53.160;7.026;2022-12-11T00:23:56;38.70;;;14.32;;
52470;SDS011;38382;53.160;7.026;2022-12-11T00:26:21;46.92;;;15.10;;
52470;SDS011;38382;53.160;7.026;2022-12-11T00:28:50;38.25;;;13.63;;
52470;SDS011;38382;53.160;7.026;2022-12-11T00:31:18;44.10;;;14.75;;
52470;SDS011;38382;53.160;7.026;2022-12-11T00:33:45;48.85;;;15.43;;
52470;SDS011;38382;53.160;7.026;2022-12-11T00:36:18;67.57;;;15.73;;
52470;SDS011;38382;53.160;7.026;2022-12-11T00:38:46;44.85;;;15.23;;
52470;SDS011;38382;53.160;7.026;2022-12-11T00:41:13;41.03;;;15.00;;
52470;SDS011;38382;53.160;7.026;2022-12-11T00:43:39;52.60;;;15.50;;
52470;SDS011;38382;53.160;7.026;2022-12-11T00:46:05;45.03;;;15.10;;
52470;SDS011;38382;53.160;7.026;2022-12-11T00:48:31;39.50;;;14.32;;
52470;SDS011;38382;53.160;7.026;2022-12-11T00:50:57;43.85;;;14.40;;
52470;SDS011;38382;53.160;7.026;2022-12-11T00:53:23;42.47;;;14.90;;
52470;SDS011;38382;53.160;7.026;2022-12-11T00:55:48;46.30;;;15.65;;
52470;SDS011;38382;53.160;7.026;2022-12-11T00:58:14;40.42;;;15.90;;
52470;SDS011;38382;53.160;7.026;2022-12-11T01:00:41;43.08;;;14.73;;
52470;SDS011;38382;53.160;7.026;2022-12-11T01:03:07;41.97;;;15.95;;
52470;SDS011;38382;53.160;7.026;2022-12-11T01:05:35;42.72;;;15.52;;
52470;SDS011;38382;53.160;7.026;2022-12-11T01:08:01;45.03;;;16.40;;
52470;SDS011;38382;53.160;7.026;2022-12-11T01:10:27;39.60;;;14.05;;
52470;SDS011;38382;53.160;7.026;2022-12-11T01:12:54;41.25;;;15.15;;
52470;SDS011;38382;53.160;7.026;2022-12-11T01:15:30;42.25;;;15.88;;
52470;SDS011;38382;53.160;7.026;2022-12-11T01:17:57;48.05;;;14.85;;
52470;SDS011;38382;53.160;7.026;2022-12-11T01:20:23;36.33;;;15.05;;
52470;SDS011;38382;53.160;7.026;2022-12-11T01:22:58;38.78;;;13.77;;
52470;SDS011;38382;53.160;7.026;2022-12-11T01:25:25;39.30;;;14.32;;
52470;SDS011;38382;53.160;7.026;2022-12-11T01:27:52;34.53;;;13.63;;
52470;SDS011;38382;53.160;7.026;2022-12-11T01:30:20;39.22;;;13.90;;
52470;SDS011;38382;53.160;7.026;2022-12-11T01:32:47;36.42;;;13.48;;
52470;SDS011;38382;53.160;7.026;2022-12-11T01:35:13;31.95;;;12.50;;
52470;SDS011;38382;53.160;7.026;2022-12-11T01:37:39;38.45;;;14.43;;
52470;SDS011;38382;53.160;7.026;2022-12-11T01:40:06;36.85;;;14.27;;
52470;SDS011;38382;53.160;7.026;2022-12-11T01:42:33;31.65;;;12.48;;
52470;SDS011;38382;53.160;7.026;2022-12-11T01:47:46;35.17;;;12.55;;
52470;SDS011;38382;53.160;7.026;2022-12-11T01:50:17;34.03;;;12.50;;
52470;SDS011;38382;53.160;7.026;2022-12-11T01:52:43;35.33;;;13.93;;
52470;SDS011;38382;53.160;7.026;2022-12-11T01:55:13;38.28;;;13.68;;
52470;SDS011;38382;53.160;7.026;2022-12-11T01:57:42;34.28;;;13.77;;
52470;SDS011;38382;53.160;7.026;2022-12-11T02:00:11;34.78;;;12.65;;
52470;SDS011;38382;53.160;7.026;2022-12-11T02:02:37;36.33;;;12.38;;
52470;SDS011;38382;53.160;7.026;2022-12-11T02:05:03;36.80;;;12.45;;
52470;SDS011;38382;53.160;7.026;2022-12-11T02:07:32;34.78;;;12.45;;
52470;SDS011;38382;53.160;7.026;2022-12-11T02:10:04;33.88;;;12.55;;
52470;SDS011;38382;53.160;7.026;2022-12-11T02:17:50;33.20;;;12.95;;
52470;SDS011;38382;53.160;7.026;2022-12-11T02:20:42;34.65;;;12.27;;
52470;SDS011;38382;53.160;7.026;2022-12-11T02:29:00;32.17;;;13.00;;
52470;SDS011;38382;53.160;7.026;2022-12-11T02:31:40;32.08;;;11.77;;
52470;SDS011;38382;53.160;7.026;2022-12-11T02:34:48;35.15;;;12.98;;
52470;SDS011;38382;53.160;7.026;2022-12-11T02:37:32;31.08;;;11.90;;
52470;SDS011;38382;53.160;7.026;2022-12-11T02:40:02;31.17;;;11.48;;
52470;SDS011;38382;53.160;7.026;2022-12-11T02:42:32;29.95;;;10.70;;
52470;SDS011;38382;53.160;7.026;2022-12-11T02:45:02;31.48;;;11.85;;
52470;SDS011;38382;53.160;7.026;2022-12-11T02:47:30;33.00;;;12.55;;
52470;SDS011;38382;53.160;7.026;2022-12-11T02:49:57;35.85;;;11.90;;
52470;SDS011;38382;53.160;7.026;2022-12-11T02:52:26;31.35;;;12.05;;
52470;SDS011;38382;53.160;7.026;2022-12-11T02:54:55;29.05;;;11.75;;
52470;SDS011;38382;53.160;7.026;2022-12-11T03:00:00;31.23;;;11.73;;
52470;SDS011;38382;53.160;7.026;2022-12-11T03:02:25;32.28;;;12.20;;
52470;SDS011;38382;53.160;7.026;2022-12-11T03:04:51;32.50;;;10.98;;
52470;SDS011;38382;53.160;7.026;2022-12-11T03:07:22;32.28;;;11.43;;
52470;SDS011;38382;53.160;7.026;2022-12-11T03:09:51;28.27;;;10.95;;
52470;SDS011;38382;53.160;7.026;2022-12-11T03:12:22;29.83;;;11.30;;
52470;SDS011;38382;53.160;7.026;2022-12-11T03:14:52;38.15;;;11.93;;
52470;SDS011;38382;53.160;7.026;2022-12-11T03:17:20;33.53;;;12.50;;
52470;SDS011;38382;53.160;7.026;2022-12-11T03:20:06;36.58;;;12.73;;
52470;SDS011;38382;53.160;7.026;2022-12-11T03:25:20;29.13;;;11.13;;
52470;SDS011;38382;53.160;7.026;2022-12-11T03:30:17;27.52;;;11.32;;
52470;SDS011;38382;53.160;7.026;2022-12-11T03:32:48;31.83;;;10.95;;
52470;SDS011;38382;53.160;7.026;2022-12-11T03:35:47;28.10;;;10.73;;
52470;SDS011;38382;53.160;7.026;2022-12-11T03:38:18;34.03;;;12.60;;
52470;SDS011;38382;53.160;7.026;2022-12-11T03:40:48;33.47;;;12.15;;
52470;SDS011;38382;53.160;7.026;2022-12-11T03:43:17;29.83;;;12.02;;
52470;SDS011;38382;53.160;7.026;2022-12-11T03:45:45;32.58;;;11.50;;
52470;SDS011;38382;53.160;7.026;2022-12-11T03:48:14;34.88;;;12.43;;
52470;SDS011;38382;53.160;7.026;2022-12-11T03:50:41;32.85;;;14.00;;
52470;SDS011;38382;53.160;7.026;2022-12-11T03:53:07;35.17;;;13.10;;
52470;SDS011;38382;53.160;7.026;2022-12-11T03:55:35;38.65;;;13.95;;
52470;SDS011;38382;53.160;7.026;2022-12-11T03:58:03;33.40;;;11.93;;
52470;SDS011;38382;53.160;7.026;2022-12-11T04:00:29;33.90;;;12.13;;
52470;SDS011;38382;53.160;7.026;2022-12-11T04:02:55;33.35;;;11.50;;
52470;SDS011;38382;53.160;7.026;2022-12-11T04:05:44;41.88;;;13.57;;
52470;SDS011;38382;53.160;7.026;2022-12-11T04:08:15;34.28;;;12.70;;
52470;SDS011;38382;53.160;7.026;2022-12-11T04:10:44;36.22;;;11.73;;
52470;SDS011;38382;53.160;7.026;2022-12-11T04:13:10;35.55;;;12.95;;
52470;SDS011;38382;53.160;7.026;2022-12-11T04:15:37;34.58;;;13.30;;
52470;SDS011;38382;53.160;7.026;2022-12-11T04:18:03;36.25;;;11.98;;
52470;SDS011;38382;53.160;7.026;2022-12-11T04:20:48;35.30;;;12.68;;
52470;SDS011;38382;53.160;7.026;2022-12-11T04:23:35;31.90;;;12.00;;
52470;SDS011;38382;53.160;7.026;2022-12-11T04:26:19;31.08;;;12.40;;
52470;SDS011;38382;53.160;7.026;2022-12-11T04:28:45;36.55;;;11.73;;
52470;SDS011;38382;53.160;7.026;2022-12-11T04:31:13;33.10;;;12.70;;
52470;SDS011;38382;53.160;7.026;2022-12-11T04:33:41;33.15;;;12.68;;
52470;SDS011;38382;53.160;7.026;2022-12-11T04:36:07;33.72;;;12.32;;
52470;SDS011;38382;53.160;7.026;2022-12-11T04:38:33;33.45;;;12.38;;
52470;SDS011;38382;53.160;7.026;2022-12-11T04:40:59;36.20;;;12.55;;
52470;SDS011;38382;53.160;7.026;2022-12-11T04:43:27;34.47;;;12.93;;
52470;SDS011;38382;53.160;7.026;2022-12-11T04:48:46;34.55;;;12.13;;
52470;SDS011;38382;53.160;7.026;2022-12-11T04:51:12;36.08;;;11.98;;
52470;SDS011;38382;53.160;7.026;2022-12-11T04:53:39;30.70;;;12.25;;
52470;SDS011;38382;53.160;7.026;2022-12-11T04:56:09;29.67;;;11.75;;
52470;SDS011;38382;53.160;7.026;2022-12-11T04:58:36;31.80;;;12.23;;
52470;SDS011;38382;53.160;7.026;2022-12-11T05:01:21;38.28;;;12.85;;
52470;SDS011;38382;53.160;7.026;2022-12-11T05:03:47;36.92;;;12.65;;
52470;SDS011;38382;53.160;7.026;2022-12-11T05:06:13;35.95;;;12.02;;
52470;SDS011;38382;53.160;7.026;2022-12-11T05:08:39;31.73;;;12.07;;
52470;SDS011;38382;53.160;7.026;2022-12-11T05:11:07;33.70;;;12.23;;
52470;SDS011;38382;53.160;7.026;2022-12-11T05:13:34;30.13;;;12.30;;
52470;SDS011;38382;53.160;7.026;2022-12-11T05:16:02;35.25;;;12.30;;
52470;SDS011;38382;53.160;7.026;2022-12-11T05:18:29;32.40;;;11.60;;
52470;SDS011;38382;53.160;7.026;2022-12-11T05:20:56;32.00;;;12.35;;
52470;SDS011;38382;53.160;7.026;2022-12-11T05:23:26;34.92;;;12.40;;
52470;SDS011;38382;53.160;7.026;2022-12-11T05:25:53;36.10;;;12.65;;
52470;SDS011;38382;53.160;7.026;2022-12-11T05:28:20;31.55;;;13.27;;
52470;SDS011;38382;53.160;7.026;2022-12-11T05:30:47;39.95;;;13.82;;
52470;SDS011;38382;53.160;7.026;2022-12-11T05:33:12;38.97;;;12.40;;
52470;SDS011;38382;53.160;7.026;2022-12-11T05:35:38;36.08;;;13.27;;
52470;SDS011;38382;53.160;7.026;2022-12-11T05:38:10;30.77;;;11.70;;
52470;SDS011;38382;53.160;7.026;2022-12-11T05:40:36;37.25;;;12.93;;
52470;SDS011;38382;53.160;7.026;2022-12-11T05:43:02;38.38;;;13.27;;
52470;SDS011;38382;53.160;7.026;2022-12-11T05:45:27;36.22;;;12.43;;
52470;SDS011;38382;53.160;7.026;2022-12-11T05:47:53;37.72;;;11.95;;
52470;SDS011;38382;53.160;7.026;2022-12-11T05:50:19;41.05;;;13.73;;
52470;SDS011;38382;53.160;7.026;2022-12-11T05:52:44;32.67;;;12.20;;
52470;SDS011;38382;53.160;7.026;2022-12-11T05:55:10;37.55;;;13.15;;
52470;SDS011;38382;53.160;7.026;2022-12-11T05:57:36;32.78;;;12.75;;
52470;SDS011;38382;53.160;7.026;2022-12-11T06:00:02;32.58;;;12.20;;
52470;SDS011;38382;53.160;7.026;2022-12-11T06:02:29;31.80;;;12.05;;
52470;SDS011;38382;53.160;7.026;2022-12-11T06:04:54;37.90;;;13.35;;
52470;SDS011;38382;53.160;7.026;2022-12-11T06:07:20;34.75;;;13.77;;
52470;SDS011;38382;53.160;7.026;2022-12-11T06:09:46;37.78;;;12.90;;
52470;SDS011;38382;53.160;7.026;2022-12-11T06:12:11;37.70;;;13.27;;
52470;SDS011;38382;53.160;7.026;2022-12-11T06:14:37;34.70;;;12.88;;
52470;SDS011;38382;53.160;7.026;2022-12-11T06:17:03;45.78;;;14.32;;
52470;SDS011;38382;53.160;7.026;2022-12-11T06:19:28;37.90;;;13.32;;
52470;SDS011;38382;53.160;7.026;2022-12-11T06:21:54;40.78;;;13.15;;
52470;SDS011;38382;53.160;7.026;2022-12-11T06:24:20;41.70;;;14.15;;
52470;SDS011;38382;53.160;7.026;2022-12-11T06:26:45;34.53;;;13.63;;
52470;SDS011;38382;53.160;7.026;2022-12-11T06:29:11;36.10;;;13.02;;
52470;SDS011;38382;53.160;7.026;2022-12-11T06:31:37;33.63;;;12.23;;
52470;SDS011;38382;53.160;7.026;2022-12-11T06:34:02;33.42;;;12.90;;
52470;SDS011;38382;53.160;7.026;2022-12-11T06:36:28;38.05;;;12.93;;
52470;SDS011;38382;53.160;7.026;2022-12-11T06:38:54;35.58;;;12.35;;
52470;SDS011;38382;53.160;7.026;2022-12-11T06:41:20;39.83;;;14.18;;
52470;SDS011;38382;53.160;7.026;2022-12-11T06:43:45;35.28;;;12.88;;
52470;SDS011;38382;53.160;7.026;2022-12-11T06:46:13;36.80;;;12.82;;
52470;SDS011;38382;53.160;7.026;2022-12-11T06:48:40;39.88;;;13.15;;
52470;SDS011;38382;53.160;7.026;2022-12-11T06:51:09;40.10;;;13.48;;
52470;SDS011;38382;53.160;7.026;2022-12-11T06:53:36;40.28;;;13.25;;
52470;SDS011;38382;53.160;7.026;2022-12-11T06:56:06;39.80;;;13.73;;
52470;SDS011;38382;53.160;7.026;2022-12-11T06:58:35;37.17;;;12.88;;
52470;SDS011;38382;53.160;7.026;2022-12-11T07:01:02;37.30;;;13.27;;
52470;SDS011;38382;53.160;7.026;2022-12-11T07:03:29;39.72;;;13.25;;
52470;SDS011;38382;53.160;7.026;2022-12-11T07:05:59;35.75;;;13.57;;
52470;SDS011;38382;53.160;7.026;2022-12-11T07:08:27;34.47;;;13.07;;
52470;SDS011;38382;53.160;7.026;2022-12-11T07:10:53;37.33;;;14.07;;
52470;SDS011;38382;53.160;7.026;2022-12-11T07:13:19;35.42;;;13.57;;
52470;SDS011;38382;53.160;7.026;2022-12-11T07:15:44;37.30;;;13.77;;
52470;SDS011;38382;53.160;7.026;2022-12-11T07:18:10;36.35;;;13.40;;
52470;SDS011;38382;53.160;7.026;2022-12-11T07:20:36;37.22;;;14.68;;
52470;SDS011;38382;53.160;7.026;2022-12-11T07:23:01;38.40;;;13.80;;
52470;SDS011;38382;53.160;7.026;2022-12-11T07:25:27;38.92;;;13.52;;
52470;SDS011;38382;53.160;7.026;2022-12-11T07:27:53;38.42;;;14.40;;
52470;SDS011;38382;53.160;7.026;2022-12-11T07:30:19;33.22;;;13.25;;
52470;SDS011;38382;53.160;7.026;2022-12-11T07:32:44;39.38;;;13.57;;
52470;SDS011;38382;53.160;7.026;2022-12-11T07:35:10;38.45;;;13.18;;
52470;SDS011;38382;53.160;7.026;2022-12-11T07:37:38;36.90;;;13.90;;
52470;SDS011;38382;53.160;7.026;2022-12-11T07:40:05;36.08;;;13.80;;
52470;SDS011;38382;53.160;7.026;2022-12-11T07:42:32;37.25;;;13.23;;
52470;SDS011;38382;53.160;7.026;2022-12-11T07:44:57;33.92;;;13.07;;
52470;SDS011;38382;53.160;7.026;2022-12-11T07:47:23;37.78;;;15.45;;
52470;SDS011;38382;53.160;7.026;2022-12-11T07:49:49;33.90;;;13.13;;
52470;SDS011;38382;53.160;7.026;2022-12-11T07:52:14;35.92;;;13.27;;
52470;SDS011;38382;53.160;7.026;2022-12-11T07:54:40;36.17;;;13.52;;
52470;SDS011;38382;53.160;7.026;2022-12-11T07:57:06;37.03;;;13.93;;
52470;SDS011;38382;53.160;7.026;2022-12-11T07:59:31;35.88;;;12.68;;
52470;SDS011;38382;53.160;7.026;2022-12-11T08:01:57;42.58;;;15.25;;
52470;SDS011;38382;53.160;7.026;2022-12-11T08:04:23;33.17;;;12.73;;
52470;SDS011;38382;53.160;7.026;2022-12-11T08:06:48;35.38;;;12.75;;
52470;SDS011;38382;53.160;7.026;2022-12-11T08:09:14;33.55;;;13.73;;
52470;SDS011;38382;53.160;7.026;2022-12-11T08:11:40;37.33;;;14.00;;
52470;SDS011;38382;53.160;7.026;2022-12-11T08:14:06;35.25;;;12.93;;
52470;SDS011;38382;53.160;7.026;2022-12-11T08:16:32;35.42;;;13.55;;
52470;SDS011;38382;53.160;7.026;2022-12-11T08:18:58;35.67;;;14.00;;
52470;SDS011;38382;53.160;7.026;2022-12-11T08:21:25;35.88;;;12.98;;
52470;SDS011;38382;53.160;7.026;2022-12-11T08:23:52;33.85;;;12.85;;
52470;SDS011;38382;53.160;7.026;2022-12-11T08:26:28;36.80;;;14.38;;
52470;SDS011;38382;53.160;7.026;2022-12-11T08:28:55;36.50;;;13.05;;
52470;SDS011;38382;53.160;7.026;2022-12-11T08:31:22;41.25;;;13.25;;
52470;SDS011;38382;53.160;7.026;2022-12-11T08:33:48;37.72;;;12.80;;
52470;SDS011;38382;53.160;7.026;2022-12-11T08:36:17;35.35;;;13.57;;
52470;SDS011;38382;53.160;7.026;2022-12-11T08:38:45;37.50;;;13.70;;
52470;SDS011;38382;53.160;7.026;2022-12-11T08:41:11;35.78;;;12.60;;
52470;SDS011;38382;53.160;7.026;2022-12-11T08:43:39;33.22;;;13.10;;
52470;SDS011;38382;53.160;7.026;2022-12-11T08:46:06;34.10;;;12.57;;
52470;SDS011;38382;53.160;7.026;2022-12-11T08:48:32;34.03;;;13.32;;
52470;SDS011;38382;53.160;7.026;2022-12-11T08:51:03;38.30;;;14.10;;
52470;SDS011;38382;53.160;7.026;2022-12-11T08:53:31;39.25;;;13.60;;
52470;SDS011;38382;53.160;7.026;2022-12-11T08:56:07;39.38;;;13.63;;
52470;SDS011;38382;53.160;7.026;2022-12-11T08:58:35;32.25;;;12.02;;
52470;SDS011;38382;53.160;7.026;2022-12-11T09:01:20;35.22;;;13.05;;
52470;SDS011;38382;53.160;7.026;2022-12-11T09:03:47;38.63;;;12.73;;
52470;SDS011;38382;53.160;7.026;2022-12-11T09:06:15;37.55;;;13.10;;
52470;SDS011;38382;53.160;7.026;2022-12-11T09:08:44;35.45;;;13.40;;
52470;SDS011;38382;53.160;7.026;2022-12-11T09:11:21;40.03;;;13.02;;
52470;SDS011;38382;53.160;7.026;2022-12-11T09:13:48;33.00;;;12.95;;
52470;SDS011;38382;53.160;7.026;2022-12-11T09:16:15;34.78;;;12.90;;
52470;SDS011;38382;53.160;7.026;2022-12-11T09:18:47;37.40;;;13.40;;
52470;SDS011;38382;53.160;7.026;2022-12-11T09:21:15;38.92;;;13.88;;
52470;SDS011;38382;53.160;7.026;2022-12-11T09:23:42;40.88;;;14.18;;
52470;SDS011;38382;53.160;7.026;2022-12-11T09:26:09;36.67;;;14.63;;
52470;SDS011;38382;53.160;7.026;2022-12-11T09:28:37;34.72;;;14.10;;
52470;SDS011;38382;53.160;7.026;2022-12-11T09:31:07;35.15;;;13.25;;
52470;SDS011;38382;53.160;7.026;2022-12-11T09:33:37;35.28;;;13.48;;
52470;SDS011;38382;53.160;7.026;2022-12-11T09:36:04;41.72;;;14.32;;
52470;SDS011;38382;53.160;7.026;2022-12-11T09:38:30;34.92;;;13.82;;
52470;SDS011;38382;53.160;7.026;2022-12-11T09:40:57;39.00;;;14.00;;
52470;SDS011;38382;53.160;7.026;2022-12-11T09:46:21;39.78;;;13.80;;
52470;SDS011;38382;53.160;7.026;2022-12-11T09:48:47;38.25;;;12.98;;
52470;SDS011;38382;53.160;7.026;2022-12-11T09:51:21;39.92;;;14.05;;
52470;SDS011;38382;53.160;7.026;2022-12-11T09:53:50;39.88;;;13.70;;
52470;SDS011;38382;53.160;7.026;2022-12-11T09:58:54;36.65;;;14.07;;
52470;SDS011;38382;53.160;7.026;2022-12-11T10:01:40;43.28;;;14.30;;
52470;SDS011;38382;53.160;7.026;2022-12-11T10:17:28;35.40;;;13.80;;
52470;SDS011;38382;53.160;7.026;2022-12-11T10:20:02;35.63;;;13.55;;
52470;SDS011;38382;53.160;7.026;2022-12-11T10:22:43;36.15;;;13.85;;
52470;SDS011;38382;53.160;7.026;2022-12-11T10:25:18;34.38;;;14.57;;
52470;SDS011;38382;53.160;7.026;2022-12-11T10:27:44;32.20;;;13.52;;
52470;SDS011;38382;53.160;7.026;2022-12-11T10:33:05;35.80;;;12.37;;
52470;SDS011;38382;53.160;7.026;2022-12-11T10:35:38;31.77;;;13.05;;
52470;SDS011;38382;53.160;7.026;2022-12-11T10:38:29;40.85;;;14.05;;
52470;SDS011;38382;53.160;7.026;2022-12-11T10:40:57;37.90;;;13.63;;
52470;SDS011;38382;53.160;7.026;2022-12-11T10:43:35;38.10;;;14.82;;
52470;SDS011;38382;53.160;7.026;2022-12-11T10:46:04;35.63;;;14.07;;
52470;SDS011;38382;53.160;7.026;2022-12-11T10:48:31;38.42;;;13.57;;
52470;SDS011;38382;53.160;7.026;2022-12-11T10:51:02;33.97;;;12.80;;
52470;SDS011;38382;53.160;7.026;2022-12-11T10:53:31;31.75;;;13.63;;
52470;SDS011;38382;53.160;7.026;2022-12-11T10:55:58;33.78;;;13.20;;
52470;SDS011;38382;53.160;7.026;2022-12-11T10:58:25;34.95;;;13.05;;
52470;SDS011;38382;53.160;7.026;2022-12-11T11:03:57;39.22;;;14.60;;
52470;SDS011;38382;53.160;7.026;2022-12-11T11:06:27;32.30;;;13.95;;
52470;SDS011;38382;53.160;7.026;2022-12-11T11:08:54;33.50;;;13.27;;
52470;SDS011;38382;53.160;7.026;2022-12-11T11:11:25;35.30;;;14.13;;
52470;SDS011;38382;53.160;7.026;2022-12-11T11:16:38;33.40;;;13.27;;
52470;SDS011;38382;53.160;7.026;2022-12-11T11:19:05;29.88;;;13.27;;
52470;SDS011;38382;53.160;7.026;2022-12-11T11:21:33;33.25;;;13.40;;
52470;SDS011;38382;53.160;7.026;2022-12-11T11:23:59;34.67;;;13.57;;
52470;SDS011;38382;53.160;7.026;2022-12-11T11:26:25;34.35;;;14.70;;
52470;SDS011;38382;53.160;7.026;2022-12-11T11:28:55;31.25;;;12.95;;
52470;SDS011;38382;53.160;7.026;2022-12-11T11:31:29;40.92;;;14.75;;
52470;SDS011;38382;53.160;7.026;2022-12-11T11:33:58;35.58;;;14.52;;
52470;SDS011;38382;53.160;7.026;2022-12-11T11:36:32;32.17;;;13.40;;
52470;SDS011;38382;53.160;7.026;2022-12-11T11:41:30;32.80;;;14.38;;
52470;SDS011;38382;53.160;7.026;2022-12-11T11:43:59;35.88;;;14.32;;
52470;SDS011;38382;53.160;7.026;2022-12-11T11:46:38;37.50;;;14.23;;
52470;SDS011;38382;53.160;7.026;2022-12-11T11:49:22;35.92;;;13.38;;
52470;SDS011;38382;53.160;7.026;2022-12-11T11:57:37;34.97;;;13.45;;
52470;SDS011;38382;53.160;7.026;2022-12-11T12:00:17;35.70;;;12.88;;
52470;SDS011;38382;53.160;7.026;2022-12-11T12:02:47;35.88;;;13.13;;
52470;SDS011;38382;53.160;7.026;2022-12-11T12:05:16;41.90;;;16.40;;
52470;SDS011;38382;53.160;7.026;2022-12-11T12:07:53;35.72;;;13.65;;
52470;SDS011;38382;53.160;7.026;2022-12-11T12:10:43;34.85;;;13.93;;
52470;SDS011;38382;53.160;7.026;2022-12-11T12:13:24;32.45;;;13.95;;
52470;SDS011;38382;53.160;7.026;2022-12-11T12:16:00;36.58;;;14.73;;
52470;SDS011;38382;53.160;7.026;2022-12-11T12:21:37;36.92;;;15.68;;
52470;SDS011;38382;53.160;7.026;2022-12-11T12:24:28;40.75;;;16.17;;
52470;SDS011;38382;53.160;7.026;2022-12-11T12:30:14;40.75;;;15.38;;
52470;SDS011;38382;53.160;7.026;2022-12-11T12:35:36;35.15;;;14.68;;
52470;SDS011;38382;53.160;7.026;2022-12-11T12:49:27;32.83;;;13.98;;
52470;SDS011;38382;53.160;7.026;2022-12-11T12:51:55;32.75;;;14.15;;
52470;SDS011;38382;53.160;7.026;2022-12-11T12:54:21;35.78;;;14.75;;
52470;SDS011;38382;53.160;7.026;2022-12-11T12:56:50;31.63;;;12.80;;
52470;SDS011;38382;53.160;7.026;2022-12-11T12:59:17;36.25;;;14.15;;
52470;SDS011;38382;53.160;7.026;2022-12-11T13:01:52;33.10;;;14.13;;
52470;SDS011;38382;53.160;7.026;2022-12-11T13:09:54;34.00;;;13.27;;
52470;SDS011;38382;53.160;7.026;2022-12-11T13:12:44;40.05;;;14.77;;
52470;SDS011;38382;53.160;7.026;2022-12-11T13:15:23;36.75;;;14.25;;
52470;SDS011;38382;53.160;7.026;2022-12-11T13:17:52;39.20;;;15.75;;
52470;SDS011;38382;53.160;7.026;2022-12-11T13:20:19;34.70;;;14.07;;
52470;SDS011;38382;53.160;7.026;2022-12-11T13:25:27;35.42;;;13.10;;
52470;SDS011;38382;53.160;7.026;2022-12-11T13:28:05;35.80;;;14.10;;
52470;SDS011;38382;53.160;7.026;2022-12-11T13:30:32;40.15;;;15.85;;
52470;SDS011;38382;53.160;7.026;2022-12-11T13:33:05;35.67;;;14.65;;
52470;SDS011;38382;53.160;7.026;2022-12-11T13:35:38;36.45;;;15.05;;
52470;SDS011;38382;53.160;7.026;2022-12-11T13:38:05;38.55;;;14.93;;
52470;SDS011;38382;53.160;7.026;2022-12-11T13:40:40;33.92;;;14.80;;
52470;SDS011;38382;53.160;7.026;2022-12-11T13:43:18;39.13;;;15.68;;
52470;SDS011;38382;53.160;7.026;2022-12-11T13:45:48;42.00;;;15.50;;
52470;SDS011;38382;53.160;7.026;2022-12-11T13:50:53;40.45;;;14.93;;
52470;SDS011;38382;53.160;7.026;2022-12-11T13:53:21;39.35;;;14.15;;
52470;SDS011;38382;53.160;7.026;2022-12-11T13:58:27;37.53;;;15.63;;
52470;SDS011;38382;53.160;7.026;2022-12-11T14:01:40;37.45;;;16.08;;
52470;SDS011;38382;53.160;7.026;2022-12-11T14:04:08;39.83;;;14.85;;
52470;SDS011;38382;53.160;7.026;2022-12-11T14:06:35;36.20;;;14.98;;
52470;SDS011;38382;53.160;7.026;2022-12-11T14:09:03;36.78;;;14.15;;
52470;SDS011;38382;53.160;7.026;2022-12-11T14:11:39;37.28;;;16.02;;
52470;SDS011;38382;53.160;7.026;2022-12-11T14:14:29;41.25;;;15.35;;
52470;SDS011;38382;53.160;7.026;2022-12-11T14:17:13;40.45;;;14.82;;
52470;SDS011;38382;53.160;7.026;2022-12-11T14:19:46;36.53;;;14.80;;
52470;SDS011;38382;53.160;7.026;2022-12-11T14:22:18;36.92;;;15.68;;
52470;SDS011;38382;53.160;7.026;2022-12-11T14:24:47;37.30;;;14.95;;
52470;SDS011;38382;53.160;7.026;2022-12-11T14:27:15;38.47;;;14.00;;
52470;SDS011;38382;53.160;7.026;2022-12-11T14:29:42;38.95;;;14.00;;
52470;SDS011;38382;53.160;7.026;2022-12-11T14:32:12;38.33;;;15.90;;
52470;SDS011;38382;53.160;7.026;2022-12-11T14:34:44;37.20;;;15.23;;
52470;SDS011;38382;53.160;7.026;2022-12-11T14:37:12;35.45;;;14.73;;
52470;SDS011;38382;53.160;7.026;2022-12-11T14:39:42;38.65;;;14.82;;
52470;SDS011;38382;53.160;7.026;2022-12-11T14:42:11;37.97;;;16.33;;
52470;SDS011;38382;53.160;7.026;2022-12-11T14:44:56;35.45;;;15.02;;
52470;SDS011;38382;53.160;7.026;2022-12-11T14:47:28;41.08;;;15.45;;
52470;SDS011;38382;53.160;7.026;2022-12-11T14:50:01;37.30;;;15.85;;
52470;SDS011;38382;53.160;7.026;2022-12-11T14:52:37;39.75;;;15.07;;
52470;SDS011;38382;53.160;7.026;2022-12-11T14:55:11;35.67;;;14.77;;
52470;SDS011;38382;53.160;7.026;2022-12-11T14:57:47;36.88;;;14.75;;
52470;SDS011;38382;53.160;7.026;2022-12-11T15:00:24;40.53;;;15.95;;
52470;SDS011;38382;53.160;7.026;2022-12-11T15:03:04;37.38;;;15.25;;
52470;SDS011;38382;53.160;7.026;2022-12-11T15:05:32;35.60;;;13.93;;
52470;SDS011;38382;53.160;7.026;2022-12-11T15:08:14;38.85;;;15.32;;
52470;SDS011;38382;53.160;7.026;2022-12-11T15:13:28;43.85;;;15.60;;
52470;SDS011;38382;53.160;7.026;2022-12-11T15:15:55;36.13;;;14.40;;
52470;SDS011;38382;53.160;7.026;2022-12-11T15:18:35;40.78;;;15.25;;
52470;SDS011;38382;53.160;7.026;2022-12-11T15:21:04;43.00;;;15.52;;
52470;SDS011;38382;53.160;7.026;2022-12-11T15:23:36;42.30;;;16.42;;
52470;SDS011;38382;53.160;7.026;2022-12-11T15:26:15;42.00;;;16.75;;
52470;SDS011;38382;53.160;7.026;2022-12-11T15:28:41;45.35;;;15.35;;
52470;SDS011;38382;53.160;7.026;2022-12-11T15:31:26;42.85;;;17.77;;
52470;SDS011;38382;53.160;7.026;2022-12-11T15:33:53;47.65;;;18.52;;
52470;SDS011;38382;53.160;7.026;2022-12-11T15:38:56;41.97;;;17.42;;
52470;SDS011;38382;53.160;7.026;2022-12-11T15:41:22;45.17;;;17.65;;
52470;SDS011;38382;53.160;7.026;2022-12-11T15:43:49;45.17;;;16.88;;
52470;SDS011;38382;53.160;7.026;2022-12-11T15:46:20;41.23;;;17.87;;
52470;SDS011;38382;53.160;7.026;2022-12-11T15:48:46;42.05;;;15.85;;
52470;SDS011;38382;53.160;7.026;2022-12-11T15:51:13;41.85;;;16.95;;
52470;SDS011;38382;53.160;7.026;2022-12-11T15:53:39;44.70;;;16.77;;
52470;SDS011;38382;53.160;7.026;2022-12-11T15:56:05;38.33;;;15.82;;
52470;SDS011;38382;53.160;7.026;2022-12-11T15:58:37;48.95;;;17.80;;
52470;SDS011;38382;53.160;7.026;2022-12-11T16:01:02;43.03;;;15.68;;
52470;SDS011;38382;53.160;7.026;2022-12-11T16:03:28;42.47;;;17.35;;
52470;SDS011;38382;53.160;7.026;2022-12-11T16:05:54;40.03;;;16.58;;
52470;SDS011;38382;53.160;7.026;2022-12-11T16:08:20;41.95;;;17.52;;
52470;SDS011;38382;53.160;7.026;2022-12-11T16:10:47;40.33;;;16.98;;
52470;SDS011;38382;53.160;7.026;2022-12-11T16:13:15;40.90;;;16.60;;
52470;SDS011;38382;53.160;7.026;2022-12-11T16:15:44;53.40;;;18.00;;